sensor_id;sensor_type;location;lat;lon;timestamp;temperature;humidity
5647;DHT22;2845;48.626;9.362;2023-09-08T00:01:58;14.90;98.40
5647;DHT22;2845;48.626;9.362;2023-09-08T00:04:33;14.80;98.20
5647;DHT22;2845;48.626;9.362;2023-09-08T00:07:07;14.80;98.30
5647;DHT22;2845;48.626;9.362;2023-09-08T00:09:41;14.80;98.60
5647;DHT22;2845;48.626;9.362;2023-09-08T00:12:17;14.80;98.60
5647;DHT22;2845;48.626;9.362;2023-09-08T00:14:51;14.70;98.30
5647;DHT22;2845;48.626;9.362;2023-09-08T00:17:26;14.70;98.40
5647;DHT22;2845;48.626;9.362;2023-09-08T00:20:00;14.60;98.40
5647;DHT22;2845;48.626;9.362;2023-09-08T00:22:37;14.50;98.50
5647;DHT22;2845;48.626;9.362;2023-09-08T00:25:12;14.50;98.60
5647;DHT22;2845;48.626;9.362;2023-09-08T00:27:47;14.50;98.80
5647;DHT22;2845;48.626;9.362;2023-09-08T00:30:21;14.50;98.70
5647;DHT22;2845;48.626;9.362;2023-09-08T00:32:56;14.40;98.50
5647;DHT22;2845;48.626;9.362;2023-09-08T00:35:31;14.40;98.70
5647;DHT22;2845;48.626;9.362;2023-09-08T00:38:05;14.30;98.70
5647;DHT22;2845;48.626;9.362;2023-09-08T00:40:40;14.30;98.70
5647;DHT22;2845;48.626;9.362;2023-09-08T00:43:17;14.20;98.80
5647;DHT22;2845;48.626;9.362;2023-09-08T00:45:59;14.20;98.80
5647;DHT22;2845;48.626;9.362;2023-09-08T00:48:38;14.20;98.70
5647;DHT22;2845;48.626;9.362;2023-09-08T00:51:14;14.20;98.80
5647;DHT22;2845;48.626;9.362;2023-09-08T00:53:49;14.20;98.90
5647;DHT22;2845;48.626;9.362;2023-09-08T00:56:24;14.10;99.00
5647;DHT22;2845;48.626;9.362;2023-09-08T00:58:59;14.10;99.00
5647;DHT22;2845;48.626;9.362;2023-09-08T01:01:35;14.10;98.90
5647;DHT22;2845;48.626;9.362;2023-09-08T01:04:09;14.00;98.90
5647;DHT22;2845;48.626;9.362;2023-09-08T01:06:44;14.00;98.90
5647;DHT22;2845;48.626;9.362;2023-09-08T01:09:19;13.90;98.90
5647;DHT22;2845;48.626;9.362;2023-09-08T01:11:54;15.10;99.40
5647;DHT22;2845;48.626;9.362;2023-09-08T01:14:35;13.90;99.20
5647;DHT22;2845;48.626;9.362;2023-09-08T01:17:09;13.90;99.30
5647;DHT22;2845;48.626;9.362;2023-09-08T01:19:46;13.80;99.20
5647;DHT22;2845;48.626;9.362;2023-09-08T01:22:36;13.90;99.20
5647;DHT22;2845;48.626;9.362;2023-09-08T01:25:21;13.80;99.20
5647;DHT22;2845;48.626;9.362;2023-09-08T01:28:00;13.80;99.20
5647;DHT22;2845;48.626;9.362;2023-09-08T01:30:35;13.70;99.20
5647;DHT22;2845;48.626;9.362;2023-09-08T01:33:10;13.70;99.20
5647;DHT22;2845;48.626;9.362;2023-09-08T01:35:45;13.70;99.20
5647;DHT22;2845;48.626;9.362;2023-09-08T01:38:21;13.60;99.10
5647;DHT22;2845;48.626;9.362;2023-09-08T01:41:00;13.60;99.20
5647;DHT22;2845;48.626;9.362;2023-09-08T01:43:35;13.60;99.10
5647;DHT22;2845;48.626;9.362;2023-09-08T01:46:09;13.50;99.10
5647;DHT22;2845;48.626;9.362;2023-09-08T01:48:43;13.50;99.20
5647;DHT22;2845;48.626;9.362;2023-09-08T01:51:17;13.50;99.20
5647;DHT22;2845;48.626;9.362;2023-09-08T01:53:52;13.50;99.20
5647;DHT22;2845;48.626;9.362;2023-09-08T01:56:28;13.50;99.30
5647;DHT22;2845;48.626;9.362;2023-09-08T01:59:02;13.50;99.40
5647;DHT22;2845;48.626;9.362;2023-09-08T02:01:37;13.50;99.40
5647;DHT22;2845;48.626;9.362;2023-09-08T02:04:12;13.50;99.40
5647;DHT22;2845;48.626;9.362;2023-09-08T02:06:46;13.50;99.40
5647;DHT22;2845;48.626;9.362;2023-09-08T02:09:20;13.50;99.60
5647;DHT22;2845;48.626;9.362;2023-09-08T02:11:56;13.50;99.50
5647;DHT22;2845;48.626;9.362;2023-09-08T02:14:31;13.30;99.50
5647;DHT22;2845;48.626;9.362;2023-09-08T02:17:06;13.30;99.50
5647;DHT22;2845;48.626;9.362;2023-09-08T02:19:40;13.20;99.80
5647;DHT22;2845;48.626;9.362;2023-09-08T02:22:14;13.30;99.80
5647;DHT22;2845;48.626;9.362;2023-09-08T02:24:48;13.20;99.80
5647;DHT22;2845;48.626;9.362;2023-09-08T02:27:25;13.20;99.60
5647;DHT22;2845;48.626;9.362;2023-09-08T02:30:01;13.20;99.70
5647;DHT22;2845;48.626;9.362;2023-09-08T02:32:36;13.20;99.60
5647;DHT22;2845;48.626;9.362;2023-09-08T02:35:11;14.20;99.80
5647;DHT22;2845;48.626;9.362;2023-09-08T02:37:45;13.10;99.60
5647;DHT22;2845;48.626;9.362;2023-09-08T02:40:19;13.10;99.50
5647;DHT22;2845;48.626;9.362;2023-09-08T02:42:55;13.10;99.50
5647;DHT22;2845;48.626;9.362;2023-09-08T02:45:29;13.00;99.60
5647;DHT22;2845;48.626;9.362;2023-09-08T02:48:07;13.00;99.60
5647;DHT22;2845;48.626;9.362;2023-09-08T02:50:43;13.00;99.50
5647;DHT22;2845;48.626;9.362;2023-09-08T02:53:18;13.00;99.40
5647;DHT22;2845;48.626;9.362;2023-09-08T02:55:53;13.00;99.60
5647;DHT22;2845;48.626;9.362;2023-09-08T02:58:29;13.00;99.50
5647;DHT22;2845;48.626;9.362;2023-09-08T03:01:10;12.90;99.60
5647;DHT22;2845;48.626;9.362;2023-09-08T03:03:47;12.90;99.50
5647;DHT22;2845;48.626;9.362;2023-09-08T03:06:22;13.00;99.50
5647;DHT22;2845;48.626;9.362;2023-09-08T03:08:58;12.80;99.50
5647;DHT22;2845;48.626;9.362;2023-09-08T03:11:33;12.80;99.50
5647;DHT22;2845;48.626;9.362;2023-09-08T03:14:11;12.80;99.60
5647;DHT22;2845;48.626;9.362;2023-09-08T03:16:45;12.70;99.70
5647;DHT22;2845;48.626;9.362;2023-09-08T03:19:20;12.70;99.80
5647;DHT22;2845;48.626;9.362;2023-09-08T03:21:54;12.80;99.80
5647;DHT22;2845;48.626;9.362;2023-09-08T03:24:28;12.70;99.80
5647;DHT22;2845;48.626;9.362;2023-09-08T03:27:04;12.70;99.70
5647;DHT22;2845;48.626;9.362;2023-09-08T03:29:39;12.60;99.70
5647;DHT22;2845;48.626;9.362;2023-09-08T03:32:13;12.70;99.70
5647;DHT22;2845;48.626;9.362;2023-09-08T03:34:48;12.70;99.70
5647;DHT22;2845;48.626;9.362;2023-09-08T03:37:23;12.60;99.60
5647;DHT22;2845;48.626;9.362;2023-09-08T03:39:59;12.60;99.70
5647;DHT22;2845;48.626;9.362;2023-09-08T03:42:33;12.60;99.70
5647;DHT22;2845;48.626;9.362;2023-09-08T03:45:10;12.60;99.70
5647;DHT22;2845;48.626;9.362;2023-09-08T03:47:44;12.60;99.70
5647;DHT22;2845;48.626;9.362;2023-09-08T03:50:18;12.60;99.80
5647;DHT22;2845;48.626;9.362;2023-09-08T03:52:52;12.50;99.70
5647;DHT22;2845;48.626;9.362;2023-09-08T03:55:27;12.50;99.80
5647;DHT22;2845;48.626;9.362;2023-09-08T03:58:01;12.50;99.80
5647;DHT22;2845;48.626;9.362;2023-09-08T04:00:39;12.50;99.80
5647;DHT22;2845;48.626;9.362;2023-09-08T04:03:13;12.50;99.90
5647;DHT22;2845;48.626;9.362;2023-09-08T04:05:48;12.50;99.80
5647;DHT22;2845;48.626;9.362;2023-09-08T04:08:23;12.50;99.90
5647;DHT22;2845;48.626;9.362;2023-09-08T04:10:57;12.50;99.90
5647;DHT22;2845;48.626;9.362;2023-09-08T04:13:31;12.50;99.90
5647;DHT22;2845;48.626;9.362;2023-09-08T04:16:08;12.50;99.90
5647;DHT22;2845;48.626;9.362;2023-09-08T04:18:43;12.50;99.80
5647;DHT22;2845;48.626;9.362;2023-09-08T04:21:17;12.40;99.80
5647;DHT22;2845;48.626;9.362;2023-09-08T04:23:52;12.50;99.80
5647;DHT22;2845;48.626;9.362;2023-09-08T04:26:26;12.50;99.80
5647;DHT22;2845;48.626;9.362;2023-09-08T04:29:00;12.50;99.70
5647;DHT22;2845;48.626;9.362;2023-09-08T04:31:38;12.50;99.60
5647;DHT22;2845;48.626;9.362;2023-09-08T04:34:13;12.50;99.70
5647;DHT22;2845;48.626;9.362;2023-09-08T04:36:48;12.40;99.70
5647;DHT22;2845;48.626;9.362;2023-09-08T04:39:22;12.40;99.90
5647;DHT22;2845;48.626;9.362;2023-09-08T04:41:56;12.40;99.80
5647;DHT22;2845;48.626;9.362;2023-09-08T04:44:30;12.40;99.80
5647;DHT22;2845;48.626;9.362;2023-09-08T04:47:06;12.40;99.80
5647;DHT22;2845;48.626;9.362;2023-09-08T04:49:40;12.30;99.70
5647;DHT22;2845;48.626;9.362;2023-09-08T04:52:15;12.40;99.70
5647;DHT22;2845;48.626;9.362;2023-09-08T04:54:49;12.20;99.80
5647;DHT22;2845;48.626;9.362;2023-09-08T04:57:23;12.30;99.90
5647;DHT22;2845;48.626;9.362;2023-09-08T04:59:57;12.30;99.90
5647;DHT22;2845;48.626;9.362;2023-09-08T05:02:33;12.40;99.90
5647;DHT22;2845;48.626;9.362;2023-09-08T05:05:08;12.40;99.90
5647;DHT22;2845;48.626;9.362;2023-09-08T05:07:42;12.40;99.80
5647;DHT22;2845;48.626;9.362;2023-09-08T05:10:18;12.40;99.80
5647;DHT22;2845;48.626;9.362;2023-09-08T05:12:52;12.40;99.80
5647;DHT22;2845;48.626;9.362;2023-09-08T05:15:27;12.30;99.90
5647;DHT22;2845;48.626;9.362;2023-09-08T05:18:07;12.30;99.90
5647;DHT22;2845;48.626;9.362;2023-09-08T05:20:41;12.90;99.90
5647;DHT22;2845;48.626;9.362;2023-09-08T05:23:14;12.40;99.90
5647;DHT22;2845;48.626;9.362;2023-09-08T05:25:49;12.40;99.90
5647;DHT22;2845;48.626;9.362;2023-09-08T05:28:23;12.40;99.90
5647;DHT22;2845;48.626;9.362;2023-09-08T05:30:57;12.50;99.90
5647;DHT22;2845;48.626;9.362;2023-09-08T05:33:34;12.40;99.90
5647;DHT22;2845;48.626;9.362;2023-09-08T05:36:08;12.50;99.90
5647;DHT22;2845;48.626;9.362;2023-09-08T05:38:46;12.50;99.90
5647;DHT22;2845;48.626;9.362;2023-09-08T05:41:20;12.60;99.90
5647;DHT22;2845;48.626;9.362;2023-09-08T05:43:54;12.60;99.90
5647;DHT22;2845;48.626;9.362;2023-09-08T05:46:28;12.80;99.90
5647;DHT22;2845;48.626;9.362;2023-09-08T05:49:06;12.90;99.90
5647;DHT22;2845;48.626;9.362;2023-09-08T05:51:41;13.10;99.80
5647;DHT22;2845;48.626;9.362;2023-09-08T05:54:15;13.20;99.60
5647;DHT22;2845;48.626;9.362;2023-09-08T05:56:50;13.30;99.50
5647;DHT22;2845;48.626;9.362;2023-09-08T05:59:24;13.50;99.40
5647;DHT22;2845;48.626;9.362;2023-09-08T06:01:58;13.50;99.30
5647;DHT22;2845;48.626;9.362;2023-09-08T06:04:34;13.60;99.30
5647;DHT22;2845;48.626;9.362;2023-09-08T06:07:09;13.60;99.20
5647;DHT22;2845;48.626;9.362;2023-09-08T06:12:18;13.90;99.20
5647;DHT22;2845;48.626;9.362;2023-09-08T06:14:52;13.90;99.30
5647;DHT22;2845;48.626;9.362;2023-09-08T06:17:26;14.00;99.40
5647;DHT22;2845;48.626;9.362;2023-09-08T06:20:03;14.20;99.40
5647;DHT22;2845;48.626;9.362;2023-09-08T06:22:39;14.40;99.30
5647;DHT22;2845;48.626;9.362;2023-09-08T06:25:14;14.50;99.10
5647;DHT22;2845;48.626;9.362;2023-09-08T06:27:49;14.60;99.10
5647;DHT22;2845;48.626;9.362;2023-09-08T06:30:23;14.80;99.00
5647;DHT22;2845;48.626;9.362;2023-09-08T06:32:58;14.90;98.80
5647;DHT22;2845;48.626;9.362;2023-09-08T06:35:34;16.70;99.00
5647;DHT22;2845;48.626;9.362;2023-09-08T06:38:08;18.50;99.30
5647;DHT22;2845;48.626;9.362;2023-09-08T06:40:42;15.20;98.40
5647;DHT22;2845;48.626;9.362;2023-09-08T06:43:17;15.20;98.30
5647;DHT22;2845;48.626;9.362;2023-09-08T06:45:51;15.30;98.20
5647;DHT22;2845;48.626;9.362;2023-09-08T06:48:26;17.40;98.60
5647;DHT22;2845;48.626;9.362;2023-09-08T06:51:02;15.50;98.10
5647;DHT22;2845;48.626;9.362;2023-09-08T06:53:38;15.60;98.00
5647;DHT22;2845;48.626;9.362;2023-09-08T06:56:12;15.70;97.90
5647;DHT22;2845;48.626;9.362;2023-09-08T06:58:47;15.90;97.90
5647;DHT22;2845;48.626;9.362;2023-09-08T07:01:21;17.90;98.20
5647;DHT22;2845;48.626;9.362;2023-09-08T07:03:55;16.20;97.70
5647;DHT22;2845;48.626;9.362;2023-09-08T07:06:32;16.20;97.60
5647;DHT22;2845;48.626;9.362;2023-09-08T07:09:06;17.60;97.80
5647;DHT22;2845;48.626;9.362;2023-09-08T07:11:41;16.80;97.50
5647;DHT22;2845;48.626;9.362;2023-09-08T07:14:15;16.60;97.30
5647;DHT22;2845;48.626;9.362;2023-09-08T07:16:49;16.70;97.20
5647;DHT22;2845;48.626;9.362;2023-09-08T07:19:24;16.80;97.30
5647;DHT22;2845;48.626;9.362;2023-09-08T07:22:00;17.00;97.20
5647;DHT22;2845;48.626;9.362;2023-09-08T07:24:35;17.00;96.60
5647;DHT22;2845;48.626;9.362;2023-09-08T07:27:09;17.10;96.00
5647;DHT22;2845;48.626;9.362;2023-09-08T07:29:45;17.30;96.20
5647;DHT22;2845;48.626;9.362;2023-09-08T07:32:20;17.40;96.40
5647;DHT22;2845;48.626;9.362;2023-09-08T07:34:55;17.50;96.30
5647;DHT22;2845;48.626;9.362;2023-09-08T07:37:31;17.60;96.20
5647;DHT22;2845;48.626;9.362;2023-09-08T07:40:06;17.70;96.20
5647;DHT22;2845;48.626;9.362;2023-09-08T07:42:41;17.80;96.10
5647;DHT22;2845;48.626;9.362;2023-09-08T07:45:17;18.00;96.10
5647;DHT22;2845;48.626;9.362;2023-09-08T07:47:51;18.10;96.10
5647;DHT22;2845;48.626;9.362;2023-09-08T07:50:27;18.20;96.30
5647;DHT22;2845;48.626;9.362;2023-09-08T07:53:04;18.40;96.10
5647;DHT22;2845;48.626;9.362;2023-09-08T07:55:39;18.50;96.30
5647;DHT22;2845;48.626;9.362;2023-09-08T07:58:13;18.60;96.20
5647;DHT22;2845;48.626;9.362;2023-09-08T08:00:47;18.70;96.10
5647;DHT22;2845;48.626;9.362;2023-09-08T08:03:22;18.90;96.10
5647;DHT22;2845;48.626;9.362;2023-09-08T08:05:57;19.00;96.00
5647;DHT22;2845;48.626;9.362;2023-09-08T08:08:33;19.10;96.00
5647;DHT22;2845;48.626;9.362;2023-09-08T08:11:12;19.30;94.40
5647;DHT22;2845;48.626;9.362;2023-09-08T08:13:47;19.20;94.80
5647;DHT22;2845;48.626;9.362;2023-09-08T08:16:21;19.50;95.00
5647;DHT22;2845;48.626;9.362;2023-09-08T08:18:57;19.60;94.90
5647;DHT22;2845;48.626;9.362;2023-09-08T08:21:32;19.90;94.70
5647;DHT22;2845;48.626;9.362;2023-09-08T08:24:07;19.90;94.80
5647;DHT22;2845;48.626;9.362;2023-09-08T08:26:43;20.00;95.00
5647;DHT22;2845;48.626;9.362;2023-09-08T08:29:17;20.20;94.90
5647;DHT22;2845;48.626;9.362;2023-09-08T08:31:51;20.40;94.90
5647;DHT22;2845;48.626;9.362;2023-09-08T08:34:25;20.60;94.20
5647;DHT22;2845;48.626;9.362;2023-09-08T08:37:00;20.80;94.50
5647;DHT22;2845;48.626;9.362;2023-09-08T08:39:38;21.00;94.00
5647;DHT22;2845;48.626;9.362;2023-09-08T08:42:12;21.20;93.90
5647;DHT22;2845;48.626;9.362;2023-09-08T08:44:47;21.30;92.60
5647;DHT22;2845;48.626;9.362;2023-09-08T08:47:21;21.40;92.70
5647;DHT22;2845;48.626;9.362;2023-09-08T08:49:56;21.40;92.50
5647;DHT22;2845;48.626;9.362;2023-09-08T08:52:33;21.50;93.20
5647;DHT22;2845;48.626;9.362;2023-09-08T08:55:09;21.60;93.30
5647;DHT22;2845;48.626;9.362;2023-09-08T08:57:44;21.70;93.40
5647;DHT22;2845;48.626;9.362;2023-09-08T09:00:18;21.90;93.20
5647;DHT22;2845;48.626;9.362;2023-09-08T09:02:52;22.00;93.30
5647;DHT22;2845;48.626;9.362;2023-09-08T09:05:45;22.10;93.30
5647;DHT22;2845;48.626;9.362;2023-09-08T09:08:21;22.20;92.70
5647;DHT22;2845;48.626;9.362;2023-09-08T09:10:58;22.30;92.70
5647;DHT22;2845;48.626;9.362;2023-09-08T09:13:33;22.30;92.70
5647;DHT22;2845;48.626;9.362;2023-09-08T09:16:07;23.20;92.80
5647;DHT22;2845;48.626;9.362;2023-09-08T09:18:54;22.70;92.40
5647;DHT22;2845;48.626;9.362;2023-09-08T09:21:41;22.70;91.60
5647;DHT22;2845;48.626;9.362;2023-09-08T09:24:17;22.70;91.80
5647;DHT22;2845;48.626;9.362;2023-09-08T09:26:56;22.70;92.20
5647;DHT22;2845;48.626;9.362;2023-09-08T09:29:30;22.90;92.10
5647;DHT22;2845;48.626;9.362;2023-09-08T09:32:06;23.00;92.10
5647;DHT22;2845;48.626;9.362;2023-09-08T09:34:48;23.10;92.10
5647;DHT22;2845;48.626;9.362;2023-09-08T09:37:24;23.20;92.00
5647;DHT22;2845;48.626;9.362;2023-09-08T09:40:00;23.30;91.70
5647;DHT22;2845;48.626;9.362;2023-09-08T09:42:39;23.40;91.70
5647;DHT22;2845;48.626;9.362;2023-09-08T09:45:16;23.60;91.80
5647;DHT22;2845;48.626;9.362;2023-09-08T09:47:52;23.70;91.40
5647;DHT22;2845;48.626;9.362;2023-09-08T09:50:32;23.80;91.50
5647;DHT22;2845;48.626;9.362;2023-09-08T09:53:11;23.90;91.60
5647;DHT22;2845;48.626;9.362;2023-09-08T09:55:46;23.90;91.30
5647;DHT22;2845;48.626;9.362;2023-09-08T09:58:23;23.90;90.90
5647;DHT22;2845;48.626;9.362;2023-09-08T10:00:58;23.80;90.40
5647;DHT22;2845;48.626;9.362;2023-09-08T10:03:34;23.70;90.70
5647;DHT22;2845;48.626;9.362;2023-09-08T10:06:09;23.70;91.40
5647;DHT22;2845;48.626;9.362;2023-09-08T10:08:44;23.90;91.40
5647;DHT22;2845;48.626;9.362;2023-09-08T10:11:21;24.10;91.20
5647;DHT22;2845;48.626;9.362;2023-09-08T10:13:59;24.20;90.80
5647;DHT22;2845;48.626;9.362;2023-09-08T10:16:39;24.30;90.70
5647;DHT22;2845;48.626;9.362;2023-09-08T10:19:15;24.30;90.30
5647;DHT22;2845;48.626;9.362;2023-09-08T10:21:51;24.30;90.60
5647;DHT22;2845;48.626;9.362;2023-09-08T10:24:33;24.50;90.50
5647;DHT22;2845;48.626;9.362;2023-09-08T10:27:09;24.60;90.50
5647;DHT22;2845;48.626;9.362;2023-09-08T10:29:45;24.70;89.90
5647;DHT22;2845;48.626;9.362;2023-09-08T10:32:20;24.70;90.10
5647;DHT22;2845;48.626;9.362;2023-09-08T10:34:56;24.80;90.00
5647;DHT22;2845;48.626;9.362;2023-09-08T10:37:33;24.90;89.00
5647;DHT22;2845;48.626;9.362;2023-09-08T10:40:21;24.80;88.60
5647;DHT22;2845;48.626;9.362;2023-09-08T10:43:06;24.80;89.30
5647;DHT22;2845;48.626;9.362;2023-09-08T10:45:42;24.80;89.80
5647;DHT22;2845;48.626;9.362;2023-09-08T10:48:19;24.90;89.00
5647;DHT22;2845;48.626;9.362;2023-09-08T10:50:53;25.10;88.90
5647;DHT22;2845;48.626;9.362;2023-09-08T10:53:28;25.20;88.40
5647;DHT22;2845;48.626;9.362;2023-09-08T10:56:05;25.30;88.70
5647;DHT22;2845;48.626;9.362;2023-09-08T10:58:53;25.30;88.20
5647;DHT22;2845;48.626;9.362;2023-09-08T11:01:29;25.30;88.50
5647;DHT22;2845;48.626;9.362;2023-09-08T11:04:05;25.50;88.00
5647;DHT22;2845;48.626;9.362;2023-09-08T11:06:42;25.60;87.70
5647;DHT22;2845;48.626;9.362;2023-09-08T11:09:17;25.80;87.60
5647;DHT22;2845;48.626;9.362;2023-09-08T11:11:51;25.90;87.10
5647;DHT22;2845;48.626;9.362;2023-09-08T11:14:26;26.00;87.00
5647;DHT22;2845;48.626;9.362;2023-09-08T11:17:05;26.10;87.20
5647;DHT22;2845;48.626;9.362;2023-09-08T11:19:44;26.10;86.80
5647;DHT22;2845;48.626;9.362;2023-09-08T11:22:23;26.10;87.30
5647;DHT22;2845;48.626;9.362;2023-09-08T11:24:58;26.20;87.00
5647;DHT22;2845;48.626;9.362;2023-09-08T11:27:33;26.10;86.80
5647;DHT22;2845;48.626;9.362;2023-09-08T11:30:08;25.90;87.70
5647;DHT22;2845;48.626;9.362;2023-09-08T11:32:44;26.10;87.70
5647;DHT22;2845;48.626;9.362;2023-09-08T11:35:19;26.20;87.60
5647;DHT22;2845;48.626;9.362;2023-09-08T11:37:59;26.40;87.30
5647;DHT22;2845;48.626;9.362;2023-09-08T11:40:35;26.60;86.90
5647;DHT22;2845;48.626;9.362;2023-09-08T11:43:09;26.70;86.70
5647;DHT22;2845;48.626;9.362;2023-09-08T11:45:44;26.80;85.90
5647;DHT22;2845;48.626;9.362;2023-09-08T11:48:20;26.70;85.80
5647;DHT22;2845;48.626;9.362;2023-09-08T11:50:54;26.80;85.90
5647;DHT22;2845;48.626;9.362;2023-09-08T11:53:29;26.80;86.20
5647;DHT22;2845;48.626;9.362;2023-09-08T11:56:06;27.00;86.00
5647;DHT22;2845;48.626;9.362;2023-09-08T11:58:42;27.00;85.80
5647;DHT22;2845;48.626;9.362;2023-09-08T12:01:16;27.10;85.90
5647;DHT22;2845;48.626;9.362;2023-09-08T12:03:53;27.10;85.40
5647;DHT22;2845;48.626;9.362;2023-09-08T12:06:28;27.20;85.50
5647;DHT22;2845;48.626;9.362;2023-09-08T12:09:03;27.20;84.50
5647;DHT22;2845;48.626;9.362;2023-09-08T12:11:39;27.30;84.90
5647;DHT22;2845;48.626;9.362;2023-09-08T12:14:16;27.30;84.70
5647;DHT22;2845;48.626;9.362;2023-09-08T12:17:05;27.40;85.10
5647;DHT22;2845;48.626;9.362;2023-09-08T12:19:42;27.40;84.30
5647;DHT22;2845;48.626;9.362;2023-09-08T12:22:16;27.50;84.20
5647;DHT22;2845;48.626;9.362;2023-09-08T12:24:58;27.50;84.40
5647;DHT22;2845;48.626;9.362;2023-09-08T12:27:36;27.50;84.40
5647;DHT22;2845;48.626;9.362;2023-09-08T12:30:16;27.30;84.50
5647;DHT22;2845;48.626;9.362;2023-09-08T12:32:52;27.20;84.70
5647;DHT22;2845;48.626;9.362;2023-09-08T12:35:28;27.20;85.10
5647;DHT22;2845;48.626;9.362;2023-09-08T12:38:06;27.20;84.40
5647;DHT22;2845;48.626;9.362;2023-09-08T12:40:41;27.20;84.30
5647;DHT22;2845;48.626;9.362;2023-09-08T12:43:15;28.00;83.90
5647;DHT22;2845;48.626;9.362;2023-09-08T12:46:00;28.10;83.40
5647;DHT22;2845;48.626;9.362;2023-09-08T12:48:34;27.50;83.10
5647;DHT22;2845;48.626;9.362;2023-09-08T12:51:11;27.50;83.50
5647;DHT22;2845;48.626;9.362;2023-09-08T12:53:45;27.40;83.50
5647;DHT22;2845;48.626;9.362;2023-09-08T12:56:20;27.30;82.70
5647;DHT22;2845;48.626;9.362;2023-09-08T12:58:54;27.30;83.70
5647;DHT22;2845;48.626;9.362;2023-09-08T13:01:30;27.10;84.10
5647;DHT22;2845;48.626;9.362;2023-09-08T13:04:07;27.10;83.00
5647;DHT22;2845;48.626;9.362;2023-09-08T13:06:43;27.20;83.00
5647;DHT22;2845;48.626;9.362;2023-09-08T13:09:18;27.30;82.30
5647;DHT22;2845;48.626;9.362;2023-09-08T13:11:53;27.50;82.60
5647;DHT22;2845;48.626;9.362;2023-09-08T13:14:27;27.30;83.00
5647;DHT22;2845;48.626;9.362;2023-09-08T13:17:04;27.20;83.60
5647;DHT22;2845;48.626;9.362;2023-09-08T13:19:40;27.20;80.80
5647;DHT22;2845;48.626;9.362;2023-09-08T13:22:15;27.20;82.90
5647;DHT22;2845;48.626;9.362;2023-09-08T13:24:49;27.10;83.00
5647;DHT22;2845;48.626;9.362;2023-09-08T13:27:24;27.20;81.90
5647;DHT22;2845;48.626;9.362;2023-09-08T13:30:08;27.30;82.00
5647;DHT22;2845;48.626;9.362;2023-09-08T13:32:44;27.40;81.50
5647;DHT22;2845;48.626;9.362;2023-09-08T13:35:19;27.50;80.80
5647;DHT22;2845;48.626;9.362;2023-09-08T13:37:55;27.60;80.50
5647;DHT22;2845;48.626;9.362;2023-09-08T13:40:29;27.60;81.40
5647;DHT22;2845;48.626;9.362;2023-09-08T13:43:05;27.60;81.30
5647;DHT22;2845;48.626;9.362;2023-09-08T13:45:39;27.60;80.70
5647;DHT22;2845;48.626;9.362;2023-09-08T13:48:15;27.60;80.30
5647;DHT22;2845;48.626;9.362;2023-09-08T13:50:51;27.70;80.20
5647;DHT22;2845;48.626;9.362;2023-09-08T13:53:28;27.80;79.90
5647;DHT22;2845;48.626;9.362;2023-09-08T13:56:18;27.80;80.60
5647;DHT22;2845;48.626;9.362;2023-09-08T13:58:53;27.90;80.30
5647;DHT22;2845;48.626;9.362;2023-09-08T14:01:29;27.90;80.30
5647;DHT22;2845;48.626;9.362;2023-09-08T14:04:06;28.10;80.50
5647;DHT22;2845;48.626;9.362;2023-09-08T14:06:43;28.10;79.90
5647;DHT22;2845;48.626;9.362;2023-09-08T14:09:24;28.20;80.00
5647;DHT22;2845;48.626;9.362;2023-09-08T14:12:03;28.10;80.10
5647;DHT22;2845;48.626;9.362;2023-09-08T14:14:41;28.20;79.20
5647;DHT22;2845;48.626;9.362;2023-09-08T14:17:16;28.40;77.30
5647;DHT22;2845;48.626;9.362;2023-09-08T14:19:50;28.60;76.70
5647;DHT22;2845;48.626;9.362;2023-09-08T14:22:24;28.70;76.90
5647;DHT22;2845;48.626;9.362;2023-09-08T14:25:00;28.80;76.80
5647;DHT22;2845;48.626;9.362;2023-09-08T14:27:36;29.00;75.70
5647;DHT22;2845;48.626;9.362;2023-09-08T14:30:11;29.10;76.40
5647;DHT22;2845;48.626;9.362;2023-09-08T14:32:46;29.30;75.30
5647;DHT22;2845;48.626;9.362;2023-09-08T14:35:20;29.50;75.50
5647;DHT22;2845;48.626;9.362;2023-09-08T14:37:54;29.60;76.00
5647;DHT22;2845;48.626;9.362;2023-09-08T14:40:30;29.60;76.60
5647;DHT22;2845;48.626;9.362;2023-09-08T14:43:04;29.70;76.60
5647;DHT22;2845;48.626;9.362;2023-09-08T14:45:38;29.70;73.40
5647;DHT22;2845;48.626;9.362;2023-09-08T14:48:12;29.80;73.10
5647;DHT22;2845;48.626;9.362;2023-09-08T14:50:47;29.70;73.50
5647;DHT22;2845;48.626;9.362;2023-09-08T14:53:22;29.70;73.10
5647;DHT22;2845;48.626;9.362;2023-09-08T14:55:58;29.70;73.90
5647;DHT22;2845;48.626;9.362;2023-09-08T14:58:32;29.60;74.90
5647;DHT22;2845;48.626;9.362;2023-09-08T15:01:07;29.40;74.60
5647;DHT22;2845;48.626;9.362;2023-09-08T15:03:42;29.50;72.40
5647;DHT22;2845;48.626;9.362;2023-09-08T15:06:16;29.60;71.90
5647;DHT22;2845;48.626;9.362;2023-09-08T15:08:50;29.60;71.60
5647;DHT22;2845;48.626;9.362;2023-09-08T15:11:26;29.80;71.60
5647;DHT22;2845;48.626;9.362;2023-09-08T15:14:00;29.90;73.40
5647;DHT22;2845;48.626;9.362;2023-09-08T15:16:35;30.00;71.40
5647;DHT22;2845;48.626;9.362;2023-09-08T15:19:09;30.00;70.00
5647;DHT22;2845;48.626;9.362;2023-09-08T15:21:43;30.00;70.10
5647;DHT22;2845;48.626;9.362;2023-09-08T15:24:18;30.00;70.60
5647;DHT22;2845;48.626;9.362;2023-09-08T15:26:53;30.10;72.20
5647;DHT22;2845;48.626;9.362;2023-09-08T15:29:30;30.10;73.80
5647;DHT22;2845;48.626;9.362;2023-09-08T15:32:05;30.20;73.30
5647;DHT22;2845;48.626;9.362;2023-09-08T15:34:42;30.40;71.30
5647;DHT22;2845;48.626;9.362;2023-09-08T15:37:19;30.40;70.40
5647;DHT22;2845;48.626;9.362;2023-09-08T15:39:54;30.50;70.30
5647;DHT22;2845;48.626;9.362;2023-09-08T15:42:29;30.60;69.70
5647;DHT22;2845;48.626;9.362;2023-09-08T15:45:05;30.60;70.00
5647;DHT22;2845;48.626;9.362;2023-09-08T15:47:42;30.60;71.40
5647;DHT22;2845;48.626;9.362;2023-09-08T15:50:16;30.50;71.90
5647;DHT22;2845;48.626;9.362;2023-09-08T15:52:51;30.40;72.90
5647;DHT22;2845;48.626;9.362;2023-09-08T15:55:25;30.10;72.20
5647;DHT22;2845;48.626;9.362;2023-09-08T15:58:00;29.80;72.10
5647;DHT22;2845;48.626;9.362;2023-09-08T16:00:34;29.40;72.20
5647;DHT22;2845;48.626;9.362;2023-09-08T16:03:09;29.30;73.00
5647;DHT22;2845;48.626;9.362;2023-09-08T16:05:43;29.00;73.30
5647;DHT22;2845;48.626;9.362;2023-09-08T16:08:18;28.90;74.10
5647;DHT22;2845;48.626;9.362;2023-09-08T16:10:56;28.70;74.00
5647;DHT22;2845;48.626;9.362;2023-09-08T16:13:32;28.60;74.70
5647;DHT22;2845;48.626;9.362;2023-09-08T16:16:07;32.00;77.10
5647;DHT22;2845;48.626;9.362;2023-09-08T16:18:43;28.40;76.00
5647;DHT22;2845;48.626;9.362;2023-09-08T16:21:22;28.40;76.70
5647;DHT22;2845;48.626;9.362;2023-09-08T16:23:56;28.30;77.30
5647;DHT22;2845;48.626;9.362;2023-09-08T16:26:35;28.40;76.60
5647;DHT22;2845;48.626;9.362;2023-09-08T16:29:10;28.10;76.80
5647;DHT22;2845;48.626;9.362;2023-09-08T16:31:44;28.00;77.30
5647;DHT22;2845;48.626;9.362;2023-09-08T16:34:19;27.90;77.40
5647;DHT22;2845;48.626;9.362;2023-09-08T16:36:54;27.90;77.30
5647;DHT22;2845;48.626;9.362;2023-09-08T16:39:28;27.80;77.20
5647;DHT22;2845;48.626;9.362;2023-09-08T16:42:04;27.70;78.10
5647;DHT22;2845;48.626;9.362;2023-09-08T16:44:42;27.70;78.40
5647;DHT22;2845;48.626;9.362;2023-09-08T16:47:16;27.60;78.30
5647;DHT22;2845;48.626;9.362;2023-09-08T16:49:53;27.50;78.30
5647;DHT22;2845;48.626;9.362;2023-09-08T16:52:27;27.60;78.00
5647;DHT22;2845;48.626;9.362;2023-09-08T16:55:01;27.50;78.50
5647;DHT22;2845;48.626;9.362;2023-09-08T16:57:37;27.40;78.80
5647;DHT22;2845;48.626;9.362;2023-09-08T17:00:15;27.40;78.80